Time;durP1;ratioP1;P1;durP2;ratioP2;P2;SDS_P1;SDS_P2;PMS_P1;PMS_P2;Temp;Humidity;BMP_temperature;BMP_pressure;BME280_temperature;BME280_humidity;BME280_pressure;Samples;Min_cycle;Max_cycle;Signal;HPM_P1;HPM_P2
2021/08/21 00:02:22;;;;;;;6.30;4.97;;;;;;;19.48;100.00;94788.72;10288515;28;20026;-72
2021/08/21 00:07:23;;;;;;;6.75;5.68;;;;;;;19.44;100.00;94785.03;10288165;28;20043;-72
2021/08/21 00:12:23;;;;;;;9.17;5.73;;;;;;;19.46;100.00;94796.41;10288168;28;20391;-72
2021/08/21 00:17:23;;;;;;;8.37;6.00;;;;;;;19.46;100.00;94793.66;10287769;28;20271;-72
2021/08/21 00:22:24;;;;;;;12.37;6.07;;;;;;;19.44;100.00;94802.19;10287992;28;20405;-72
2021/08/21 00:27:26;;;;;;;6.95;5.68;;;;;;;19.20;100.00;94800.03;10287788;28;20511;-72
2021/08/21 00:32:27;;;;;;;9.27;6.22;;;;;;;19.19;100.00;94803.09;10287001;28;20449;-72
2021/08/21 00:37:27;;;;;;;8.60;5.60;;;;;;;19.09;100.00;94806.97;10287060;28;20060;-72
2021/08/21 00:42:28;;;;;;;7.30;5.87;;;;;;;19.01;100.00;94807.81;10286263;28;20035;-72
2021/08/21 00:47:28;;;;;;;7.63;5.70;;;;;;;18.92;100.00;94805.91;10286851;28;20105;-71
2021/08/21 00:52:31;;;;;;;8.48;6.38;;;;;;;18.94;100.00;94806.38;10286741;28;20039;-72
2021/08/21 00:57:32;;;;;;;7.78;5.93;;;;;;;19.00;100.00;94809.72;10290110;28;20469;-72
2021/08/21 01:02:33;;;;;;;8.75;5.32;;;;;;;18.94;100.00;94814.53;10286611;28;20030;-72
2021/08/21 01:07:35;;;;;;;9.05;6.32;;;;;;;18.84;100.00;94814.84;10284985;28;20066;-72
2021/08/21 01:12:37;;;;;;;8.27;6.25;;;;;;;18.82;100.00;94811.66;10286543;28;20034;-72
2021/08/21 01:17:38;;;;;;;7.90;6.50;;;;;;;18.69;100.00;94805.28;10286024;28;20110;-72
2021/08/21 01:22:39;;;;;;;13.48;6.70;;;;;;;18.56;100.00;94814.44;10286285;28;20029;-72
2021/08/21 01:27:39;;;;;;;11.02;6.28;;;;;;;18.53;100.00;94813.16;10285931;28;20027;-71
2021/08/21 01:32:40;;;;;;;10.32;5.97;;;;;;;18.54;100.00;94825.63;10285799;28;20033;-71
2021/08/21 01:37:40;;;;;;;8.40;6.23;;;;;;;18.55;100.00;94821.78;10285930;28;20471;-72
2021/08/21 01:42:42;;;;;;;6.28;5.68;;;;;;;18.62;100.00;94826.75;10285687;28;20027;-72
2021/08/21 01:47:45;;;;;;;7.32;5.57;;;;;;;18.69;100.00;94820.81;10285340;28;20037;-72
2021/08/21 01:52:48;;;;;;;7.40;6.18;;;;;;;18.77;100.00;94812.63;10285737;28;20022;-72
2021/08/21 01:57:48;;;;;;;7.43;5.80;;;;;;;18.70;100.00;94822.38;10285558;28;20506;-72
2021/08/21 02:02:49;;;;;;;10.35;5.47;;;;;;;18.54;100.00;94813.94;10285020;28;20110;-72
2021/08/21 02:07:50;;;;;;;7.72;5.78;;;;;;;18.48;100.00;94826.91;10290440;28;20590;-72
2021/08/21 02:12:50;;;;;;;7.38;5.75;;;;;;;18.50;100.00;94823.88;10292220;28;20031;-72
2021/08/21 02:17:51;;;;;;;10.80;7.63;;;;;;;18.41;100.00;94834.75;10292417;28;20030;-72
2021/08/21 02:22:52;;;;;;;7.68;5.63;;;;;;;18.43;100.00;94827.06;10292391;28;20019;-72
2021/08/21 02:28:06;;;;;;;10.20;6.45;;;;;;;18.45;100.00;94827.56;10292246;28;20130;-72
2021/08/21 02:33:07;;;;;;;6.60;5.03;;;;;;;18.41;100.00;94823.88;10292244;28;20031;-72
2021/08/21 02:38:09;;;;;;;6.15;5.22;;;;;;;18.42;100.00;94820.84;10291803;28;20031;-72
2021/08/21 02:43:11;;;;;;;7.40;5.60;;;;;;;18.37;100.00;94833.81;10290089;28;20035;-72
2021/08/21 02:48:11;;;;;;;9.30;6.05;;;;;;;18.33;100.00;94828.19;10290682;28;20129;-72
2021/08/21 02:53:12;;;;;;;7.40;6.60;;;;;;;18.33;100.00;94830.91;10290569;28;20050;-72
2021/08/21 02:58:12;;;;;;;9.20;6.90;;;;;;;18.31;100.00;94849.50;10290075;28;20493;-71
2021/08/21 03:03:13;;;;;;;10.93;6.57;;;;;;;18.28;100.00;94842.75;10290854;28;20031;-72
2021/08/21 03:08:13;;;;;;;8.93;5.73;;;;;;;18.22;100.00;94846.78;10288527;28;20293;-72
2021/08/21 03:13:13;;;;;;;9.60;6.20;;;;;;;18.13;100.00;94859.56;10289401;28;20109;-71
2021/08/21 03:18:14;;;;;;;6.90;6.20;;;;;;;18.03;100.00;94854.41;10289339;28;20030;-71
2021/08/21 03:23:14;;;;;;;8.67;6.17;;;;;;;17.75;100.00;94852.72;10289910;28;20647;-72
2021/08/21 03:28:14;;;;;;;10.57;6.70;;;;;;;17.58;100.00;94860.81;10289872;28;20282;-72
2021/08/21 03:33:15;;;;;;;8.95;6.05;;;;;;;17.53;100.00;94858.25;10289931;28;20112;-72
2021/08/21 03:38:16;;;;;;;12.50;6.17;;;;;;;17.36;100.00;94867.16;10289513;28;20431;-72
2021/08/21 03:43:16;;;;;;;9.90;6.22;;;;;;;17.25;100.00;94877.47;10289460;28;20627;-72
2021/08/21 03:48:17;;;;;;;9.65;7.05;;;;;;;17.28;100.00;94868.69;10289282;28;20038;-72
2021/08/21 03:53:19;;;;;;;10.60;6.43;;;;;;;17.13;100.00;94871.81;10288564;28;20088;-72
2021/08/21 03:58:19;;;;;;;6.22;5.63;;;;;;;17.23;100.00;94871.53;10287038;28;20031;-72
2021/08/21 04:03:19;;;;;;;9.77;6.57;;;;;;;17.23;100.00;94880.50;10288092;28;20402;-72
2021/08/21 04:08:20;;;;;;;7.07;5.93;;;;;;;17.20;100.00;94889.25;10287156;28;20057;-71
2021/08/21 04:13:20;;;;;;;7.50;6.60;;;;;;;17.23;100.00;94888.66;10288024;28;20399;-72
2021/08/21 04:18:20;;;;;;;9.73;5.47;;;;;;;17.36;100.00;94899.75;10287714;28;20489;-72
2021/08/21 04:23:21;;;;;;;8.67;6.43;;;;;;;17.36;100.00;94910.63;10287898;28;20401;-72
2021/08/21 04:28:21;;;;;;;8.25;6.80;;;;;;;17.18;100.00;94913.22;10286907;28;20093;-72
2021/08/21 04:33:22;;;;;;;7.00;5.80;;;;;;;17.19;100.00;94909.41;10286347;28;20019;-72
2021/08/21 04:38:22;;;;;;;11.20;6.32;;;;;;;17.42;100.00;94912.84;10287513;28;20033;-72
2021/08/21 04:43:23;;;;;;;12.67;6.57;;;;;;;17.58;100.00;94907.00;10286847;28;20026;-72
2021/08/21 04:48:23;;;;;;;8.80;5.77;;;;;;;17.48;100.00;94921.69;10287308;28;20344;-72
2021/08/21 04:53:23;;;;;;;7.73;5.90;;;;;;;17.69;100.00;94915.69;10286932;28;20029;-71
2021/08/21 04:58:24;;;;;;;8.37;5.63;;;;;;;17.85;100.00;94908.72;10285797;28;20274;-72
2021/08/21 05:03:24;;;;;;;9.40;6.87;;;;;;;18.03;100.00;94915.03;10286330;28;20473;-71
2021/08/21 05:08:24;;;;;;;8.00;5.70;;;;;;;18.27;100.00;94914.59;10286168;28;20395;-72
2021/08/21 05:13:25;;;;;;;7.97;5.53;;;;;;;18.73;100.00;94919.78;10286436;28;20385;-72
2021/08/21 05:18:37;;;;;;;6.65;5.38;;;;;;;19.05;100.00;94923.16;10286026;28;20027;-72
2021/08/21 05:23:38;;;;;;;7.72;5.20;;;;;;;19.54;100.00;94922.91;10285485;28;20224;-72
2021/08/21 05:28:38;;;;;;;8.20;4.50;;;;;;;20.13;96.88;94920.22;10285995;28;20391;-72
2021/08/21 05:33:39;;;;;;;6.40;4.63;;;;;;;20.61;90.24;94920.09;10286038;28;20272;-71
2021/08/21 05:38:39;;;;;;;9.85;4.22;;;;;;;21.27;86.21;94932.28;10285838;28;20034;-72
2021/08/21 05:43:40;;;;;;;6.15;3.60;;;;;;;21.59;80.24;94927.16;10292799;28;20033;-72
2021/08/21 05:48:40;;;;;;;7.07;4.57;;;;;;;21.90;78.56;94934.03;10293721;28;20034;-72
2021/08/21 05:53:40;;;;;;;13.83;3.97;;;;;;;22.84;69.11;94922.09;10293664;28;20026;-72
2021/08/21 05:58:41;;;;;;;11.43;4.60;;;;;;;23.29;63.51;94917.50;10292806;28;20266;-72
2021/08/21 06:03:41;;;;;;;4.73;3.90;;;;;;;23.60;61.47;94920.66;10291815;28;20034;-72
2021/08/21 06:08:41;;;;;;;8.27;3.93;;;;;;;25.14;57.62;94919.91;10290673;28;20053;-72
2021/08/21 06:13:42;;;;;;;9.60;4.00;;;;;;;26.34;50.98;94916.16;10292552;28;20027;-72
2021/08/21 06:18:42;;;;;;;6.47;3.93;;;;;;;27.17;47.07;94911.00;10292716;28;20023;-72
2021/08/21 06:23:43;;;;;;;5.63;3.30;;;;;;;27.87;43.71;94897.56;10292277;28;20290;-72
2021/08/21 06:28:43;;;;;;;11.57;3.80;;;;;;;28.35;42.65;94907.84;10290920;28;20483;-72
2021/08/21 06:33:43;;;;;;;9.70;3.28;;;;;;;29.34;40.70;94896.94;10291074;28;20065;-72
2021/08/21 06:38:44;;;;;;;9.97;3.00;;;;;;;29.90;38.03;94900.25;10291011;28;20041;-72
2021/08/21 06:43:44;;;;;;;5.57;2.50;;;;;;;30.36;36.12;94902.22;10291239;28;20023;-72
2021/08/21 06:48:44;;;;;;;6.27;3.40;;;;;;;30.58;36.23;94894.69;10291173;28;20186;-72
2021/08/21 06:53:45;;;;;;;9.87;4.03;;;;;;;30.95;35.42;94890.63;10273736;28;20131;-72
2021/08/21 06:58:45;;;;;;;15.73;3.20;;;;;;;31.04;34.30;94897.78;10291109;28;20069;-72
2021/08/21 07:03:46;;;;;;;6.57;2.90;;;;;;;31.72;33.42;94900.25;10290450;28;20058;-72
2021/08/21 07:08:46;;;;;;;10.97;3.17;;;;;;;32.46;33.32;94902.06;10290460;28;20054;-72
2021/08/21 07:13:47;;;;;;;7.83;2.97;;;;;;;33.47;31.44;94893.44;10290255;28;20285;-72
2021/08/21 07:18:47;;;;;;;4.80;2.38;;;;;;;33.14;30.55;94895.84;10289930;28;20022;-73
2021/08/21 07:23:48;;;;;;;4.95;2.33;;;;;;;33.90;29.56;94892.84;10289799;28;20417;-72
2021/08/21 07:28:48;;;;;;;4.43;2.03;;;;;;;34.08;29.42;94897.38;10289924;28;20110;-72
2021/08/21 07:33:49;;;;;;;4.68;2.40;;;;;;;33.20;30.35;94885.78;10289427;28;20027;-72
2021/08/21 07:38:51;;;;;;;7.90;2.63;;;;;;;34.01;30.09;94900.28;10289546;28;20023;-72
2021/08/21 07:43:52;;;;;;;3.30;2.20;;;;;;;34.02;29.95;94899.84;10287579;28;20698;-72
2021/08/21 07:48:52;;;;;;;6.63;2.50;;;;;;;34.16;30.12;94906.41;10288353;28;20084;-72
2021/08/21 07:53:53;;;;;;;4.07;2.50;;;;;;;33.17;31.19;94899.75;10288534;28;20442;-73
2021/08/21 07:58:53;;;;;;;3.07;2.43;;;;;;;33.16;31.08;94906.56;10288712;28;20022;-73
2021/08/21 08:03:53;;;;;;;3.73;2.60;;;;;;;34.38;29.75;94899.31;10288052;28;20027;-73
2021/08/21 08:08:54;;;;;;;6.63;2.13;;;;;;;35.86;27.96;94904.06;10287979;28;20043;-73
2021/08/21 08:13:54;;;;;;;3.60;2.13;;;;;;;36.27;27.26;94900.69;10288164;28;20030;-71
2021/08/21 08:18:54;;;;;;;7.30;2.30;;;;;;;36.82;26.29;94890.97;10287620;28;20041;-71
2021/08/21 08:23:56;;;;;;;6.97;2.33;;;;;;;36.71;26.06;94888.41;10286730;28;20046;-71
2021/08/21 08:28:56;;;;;;;4.38;2.28;;;;;;;37.66;25.21;94893.00;10287444;28;20034;-71
2021/08/21 08:33:56;;;;;;;6.30;2.23;;;;;;;38.59;24.25;94892.88;10287409;28;20030;-71
2021/08/21 08:38:57;;;;;;;4.77;2.20;;;;;;;39.38;23.71;94892.16;10287233;28;20035;-71
2021/08/21 08:43:59;;;;;;;6.03;2.10;;;;;;;38.81;24.24;94892.16;10286960;28;20029;-71
2021/08/21 08:49:02;;;;;;;10.60;2.28;;;;;;;38.36;24.34;94884.84;10286909;28;20027;-71
2021/08/21 08:54:02;;;;;;;7.35;2.78;;;;;;;39.38;23.02;94880.91;10286546;28;20076;-71
2021/08/21 08:59:03;;;;;;;4.37;1.70;;;;;;;39.94;22.79;94878.38;10286587;28;20089;-71
2021/08/21 09:04:21;;;;;;;5.27;2.07;;;;;;;39.73;22.12;94874.38;10287524;28;20893;-71
2021/08/21 09:09:24;;;;;;;9.25;2.42;;;;;;;40.15;22.01;94868.31;10286267;28;20175;-71
2021/08/21 09:14:30;;;;;;;6.43;2.08;;;;;;;38.64;22.92;94866.22;10285388;28;20102;-71
2021/08/21 09:19:31;;;;;;;6.18;2.15;;;;;;;38.50;23.21;94864.69;10287140;28;20564;-72
2021/08/21 09:24:34;;;;;;;3.67;1.60;;;;;;;36.64;23.76;94863.41;10287139;28;20114;-72
2021/08/21 09:29:34;;;;;;;2.08;1.67;;;;;;;38.00;22.99;94857.91;10287140;28;20101;-72
2021/08/21 09:34:36;;;;;;;3.78;2.30;;;;;;;39.53;21.76;94846.59;10286637;28;20430;-72
2021/08/21 09:39:39;;;;;;;3.47;1.92;;;;;;;40.10;21.67;94852.03;10286931;28;20030;-72
2021/08/21 09:44:42;;;;;;;4.55;2.00;;;;;;;40.24;20.35;94847.84;10287111;28;20027;-72
2021/08/21 09:49:44;;;;;;;4.93;2.17;;;;;;;40.68;20.49;94842.00;10286444;28;20391;-72
2021/08/21 09:55:06;;;;;;;7.10;1.67;;;;;;;41.45;19.97;94838.19;10286754;28;20066;-72
2021/08/21 10:00:07;;;;;;;2.70;1.50;;;;;;;42.09;19.76;94835.59;10285429;28;20038;-72
2021/08/21 10:05:08;;;;;;;2.20;1.63;;;;;;;43.17;18.83;94845.06;10286270;28;20051;-72
2021/08/21 10:10:10;;;;;;;4.03;1.90;;;;;;;42.62;19.38;94842.66;10286471;28;20034;-72
2021/08/21 10:15:13;;;;;;;3.42;2.00;;;;;;;42.37;19.78;94830.59;10285834;28;20026;-72
2021/08/21 10:20:13;;;;;;;3.30;1.88;;;;;;;42.06;19.50;94826.06;10286125;28;20527;-72
2021/08/21 10:25:14;;;;;;;2.88;1.85;;;;;;;43.15;18.84;94827.81;10286255;28;20035;-72
2021/08/21 10:30:20;;;;;;;3.45;1.90;;;;;;;44.25;17.41;94821.34;10293125;28;20445;-72
2021/08/21 10:35:59;;;;;;;5.15;2.45;;;;;;;42.55;18.75;94829.69;10292098;28;20045;-72
2021/08/21 10:41:00;;;;;;;4.60;3.67;;;;;;;41.36;19.69;94823.34;10292751;28;20049;-72
2021/08/21 10:46:00;;;;;;;5.63;2.40;;;;;;;41.49;19.65;94816.22;10293063;28;20103;-72
2021/08/21 10:51:04;;;;;;;2.97;1.93;;;;;;;43.65;18.23;94806.53;10292497;28;20027;-72
2021/08/21 10:56:04;;;;;;;7.72;2.28;;;;;;;42.92;18.35;94812.44;10292660;28;20019;-72
2021/08/21 11:01:08;;;;;;;2.50;2.30;;;;;;;40.76;19.83;94806.63;10292100;28;20037;-72
2021/08/21 11:06:14;;;;;;;5.93;2.65;;;;;;;41.22;19.28;94791.69;10291919;28;20046;-72
2021/08/21 11:11:48;;;;;;;2.95;2.55;;;;;;;36.75;22.82;94791.09;10291626;28;20089;-72
2021/08/21 11:17:00;;;;;;;5.00;2.55;;;;;;;35.43;23.97;94802.34;10291192;28;20589;-72
2021/08/21 11:22:10;;;;;;;4.35;2.97;;;;;;;34.19;24.96;94794.78;10291582;28;20030;-72
2021/08/21 11:27:22;;;;;;;4.65;2.95;;;;;;;33.18;26.48;94796.31;10291382;28;20034;-72
2021/08/21 11:32:23;;;;;;;5.93;3.67;;;;;;;32.53;27.74;94793.53;10289779;28;20030;-71
2021/08/21 11:37:24;;;;;;;4.65;3.50;;;;;;;32.16;28.01;94806.22;10289960;28;20066;-71
2021/08/21 11:42:48;;;;;;;3.88;3.42;;;;;;;31.56;28.47;94797.91;10324198;28;20122;-71
2021/08/21 11:47:55;;;;;;;6.00;3.38;;;;;;;31.38;29.05;94795.25;10330865;28;20383;-71
2021/08/21 11:52:58;;;;;;;7.20;4.22;;;;;;;31.85;28.78;94786.59;10330268;28;20052;-72
2021/08/21 11:57:59;;;;;;;5.93;3.78;;;;;;;32.42;27.86;94785.28;10330133;28;20211;-71
2021/08/21 12:03:05;;;;;;;6.97;4.05;;;;;;;32.51;28.29;94782.00;10329873;28;20560;-71
2021/08/21 12:08:21;;;;;;;5.93;3.80;;;;;;;31.53;29.45;94785.63;10329939;28;20051;-72
2021/08/21 12:13:36;;;;;;;4.25;3.83;;;;;;;30.90;30.43;94795.91;10329911;28;20033;-72
2021/08/21 12:18:40;;;;;;;4.68;3.80;;;;;;;30.23;30.91;94790.16;10329443;28;20041;-72
2021/08/21 12:23:43;;;;;;;6.05;4.47;;;;;;;30.09;31.83;94783.44;10329289;28;20022;-72
2021/08/21 12:28:45;;;;;;;6.85;4.15;;;;;;;30.31;31.47;94778.66;10311579;28;20030;-72
2021/08/21 12:33:54;;;;;;;8.38;4.55;;;;;;;30.58;30.30;94782.97;10329219;28;20035;-72
2021/08/21 12:39:08;;;;;;;5.68;4.40;;;;;;;30.42;30.41;94794.44;10329073;28;20053;-72
2021/08/21 12:44:14;;;;;;;5.75;4.70;;;;;;;30.10;31.24;94796.13;10342153;28;20114;-72
2021/08/21 12:49:15;;;;;;;5.80;4.82;;;;;;;29.94;31.77;94796.53;10328476;28;20048;-72
2021/08/21 12:54:15;;;;;;;5.57;4.10;;;;;;;29.56;31.93;94803.63;10310826;28;20029;-72
2021/08/21 12:59:15;;;;;;;9.30;5.53;;;;;;;29.21;32.81;94811.47;10328197;28;20034;-72
2021/08/21 13:04:18;;;;;;;11.67;5.13;;;;;;;29.09;32.64;94811.81;10327663;28;20487;-72
2021/08/21 13:09:18;;;;;;;5.10;4.60;;;;;;;28.95;32.39;94802.28;10327606;28;20046;-72
2021/08/21 13:14:18;;;;;;;9.57;4.00;;;;;;;28.86;33.14;94795.53;10327449;28;20026;-72
2021/08/21 13:19:19;;;;;;;6.10;4.53;;;;;;;28.81;32.74;94797.50;10327274;28;20030;-72
2021/08/21 13:24:19;;;;;;;6.03;4.15;;;;;;;28.81;32.33;94800.25;10327343;28;20054;-72
2021/08/21 13:29:20;;;;;;;5.50;4.63;;;;;;;28.78;33.05;94798.28;10327172;28;20454;-72
2021/08/21 13:34:20;;;;;;;11.13;4.87;;;;;;;28.71;32.32;94798.25;10324445;28;20277;-72
2021/08/21 13:39:20;;;;;;;8.80;4.70;;;;;;;28.73;32.94;94798.66;10287130;28;20328;-72
2021/08/21 13:44:21;;;;;;;6.83;4.60;;;;;;;28.78;32.12;94795.50;10286963;28;20027;-72
2021/08/21 13:49:21;;;;;;;6.23;4.37;;;;;;;28.85;32.75;94794.75;10286694;28;20138;-72
2021/08/21 13:54:22;;;;;;;5.53;3.80;;;;;;;28.80;32.48;94795.94;10285109;28;20026;-72
2021/08/21 13:59:22;;;;;;;6.45;4.25;;;;;;;28.85;32.32;94788.44;10286464;28;20765;-72
2021/08/21 14:04:23;;;;;;;5.53;3.65;;;;;;;28.86;32.23;94796.34;10293071;28;20090;-72
2021/08/21 14:09:23;;;;;;;7.70;3.80;;;;;;;28.72;32.00;94802.63;10293836;28;20054;-72
2021/08/21 14:14:24;;;;;;;4.63;3.75;;;;;;;28.64;31.34;94801.00;10294124;28;20014;-72
2021/08/21 14:19:25;;;;;;;7.30;3.95;;;;;;;28.42;31.92;94800.84;10294099;28;20553;-72
2021/08/21 14:24:25;;;;;;;8.33;3.80;;;;;;;28.34;32.27;94792.91;10293274;28;20034;-72
2021/08/21 14:29:26;;;;;;;8.18;3.67;;;;;;;28.22;32.14;94799.56;10292255;28;20270;-72
2021/08/21 14:34:26;;;;;;;4.80;3.00;;;;;;;28.06;32.03;94810.91;10290958;28;20023;-71
2021/08/21 14:39:26;;;;;;;5.03;3.30;;;;;;;27.88;32.52;94807.97;10290673;28;20035;-71
2021/08/21 14:44:27;;;;;;;7.67;3.40;;;;;;;27.70;33.06;94805.88;10290560;28;20038;-71
2021/08/21 14:49:27;;;;;;;8.38;3.90;;;;;;;27.61;33.46;94805.41;10290518;28;20044;-71
2021/08/21 14:54:28;;;;;;;6.07;3.53;;;;;;;27.57;33.57;94805.41;10290245;28;20090;-71
2021/08/21 14:59:28;;;;;;;5.97;4.07;;;;;;;27.60;33.91;94803.81;10289958;28;20643;-72
2021/08/21 15:04:31;;;;;;;10.17;4.60;;;;;;;27.82;33.87;94815.06;10289915;28;20038;-72
2021/08/21 15:09:31;;;;;;;5.88;4.13;;;;;;;27.95;33.41;94816.31;10289974;28;20074;-72
2021/08/21 15:14:32;;;;;;;11.57;4.80;;;;;;;28.10;33.27;94817.25;10287576;28;20097;-72
2021/08/21 15:19:38;;;;;;;7.80;3.63;;;;;;;28.17;33.01;94822.81;10319004;28;20113;-72
2021/08/21 15:24:42;;;;;;;5.07;3.08;;;;;;;28.05;33.47;94814.84;10328232;28;20037;-72
2021/08/21 15:29:42;;;;;;;4.80;3.17;;;;;;;28.03;33.89;94833.78;10310499;28;20520;-72
2021/08/21 15:34:44;;;;;;;6.40;3.83;;;;;;;27.92;34.01;94825.38;10329004;28;20026;-72
2021/08/21 15:39:45;;;;;;;6.13;3.10;;;;;;;27.93;33.75;94830.50;10328761;28;20026;-72
2021/08/21 15:44:46;;;;;;;4.53;3.42;;;;;;;27.79;34.81;94828.44;10328772;28;20023;-72
2021/08/21 15:49:48;;;;;;;5.97;3.70;;;;;;;27.75;34.79;94821.31;10328469;28;20033;-72
2021/08/21 15:54:48;;;;;;;7.95;3.53;;;;;;;27.73;34.92;94818.16;10328325;28;20462;-72
2021/08/21 15:59:48;;;;;;;6.67;3.73;;;;;;;27.60;35.53;94814.84;10328158;28;20030;-72
2021/08/21 16:04:49;;;;;;;4.50;3.23;;;;;;;27.53;36.18;94817.56;10327181;28;20145;-72
2021/08/21 16:09:49;;;;;;;6.20;3.78;;;;;;;27.35;35.71;94815.44;10326822;28;20277;-72
2021/08/21 16:14:50;;;;;;;9.57;3.67;;;;;;;27.29;36.50;94814.16;10327397;28;20057;-72
2021/08/21 16:19:50;;;;;;;7.03;3.87;;;;;;;27.21;36.92;94813.31;10327374;28;20038;-72
2021/08/21 16:24:50;;;;;;;7.77;3.33;;;;;;;27.23;37.13;94824.75;10326663;28;20030;-72
2021/08/21 16:29:51;;;;;;;5.97;3.60;;;;;;;27.08;37.74;94828.53;10327028;28;20105;-72
2021/08/21 16:34:51;;;;;;;6.23;3.43;;;;;;;26.83;38.33;94825.47;10327532;28;20265;-72
2021/08/21 16:39:52;;;;;;;9.02;4.65;;;;;;;26.62;38.95;94826.78;10327641;28;20033;-72
2021/08/21 16:44:52;;;;;;;7.10;3.80;;;;;;;26.48;39.43;94823.84;10328404;28;20030;-72
2021/08/21 16:49:52;;;;;;;6.10;4.20;;;;;;;26.34;40.54;94829.94;10328443;28;20019;-72
2021/08/21 16:54:53;;;;;;;11.27;4.20;;;;;;;26.05;41.58;94835.03;10328004;28;20034;-72
2021/08/21 16:59:53;;;;;;;7.37;4.53;;;;;;;25.90;43.12;94839.53;10327946;28;20799;-71
2021/08/21 17:04:54;;;;;;;8.73;4.63;;;;;;;25.67;43.59;94834.81;10327540;28;20560;-71
2021/08/21 17:09:54;;;;;;;6.10;4.47;;;;;;;25.48;44.27;94843.94;10327783;28;20830;-71
2021/08/21 17:14:54;;;;;;;11.50;5.20;;;;;;;25.35;44.88;94848.03;10327514;28;20098;-71
2021/08/21 17:19:55;;;;;;;12.30;5.40;;;;;;;25.32;44.51;94854.22;10327508;28;20277;-72
2021/08/21 17:24:55;;;;;;;14.17;5.83;;;;;;;25.17;45.76;94856.69;10327369;28;20285;-71
2021/08/21 17:29:55;;;;;;;14.90;6.37;;;;;;;25.01;45.93;94865.06;10327209;28;20030;-71
2021/08/21 17:34:57;;;;;;;11.47;5.60;;;;;;;24.79;46.55;94869.31;10327374;28;20274;-71
2021/08/21 17:39:57;;;;;;;12.68;5.88;;;;;;;24.68;47.40;94880.09;10335278;28;20478;-72
2021/08/21 17:44:57;;;;;;;15.07;6.93;;;;;;;24.63;46.98;94874.88;10334923;28;20092;-72
2021/08/21 17:49:58;;;;;;;8.47;4.60;;;;;;;24.65;46.64;94886.31;10335140;28;20030;-72
2021/08/21 17:54:58;;;;;;;17.03;6.17;;;;;;;24.66;47.45;94885.16;10334970;28;20112;-72
2021/08/21 18:00:00;;;;;;;11.03;5.83;;;;;;;24.41;48.71;94887.34;10335007;28;20406;-72
2021/08/21 18:05:00;;;;;;;14.80;6.55;;;;;;;24.36;49.29;94882.91;10334690;28;20062;-72
2021/08/21 18:10:02;;;;;;;16.27;6.17;;;;;;;24.36;49.64;94898.59;10334773;28;20061;-72
2021/08/21 18:15:05;;;;;;;11.80;6.20;;;;;;;24.32;49.74;94908.69;10334315;28;20030;-72
2021/08/21 18:20:06;;;;;;;17.75;6.15;;;;;;;24.31;49.09;94907.91;10334246;28;20057;-72
2021/08/21 18:25:09;;;;;;;7.00;5.25;;;;;;;24.34;47.96;94915.44;10333993;28;20081;-72
2021/08/21 18:30:10;;;;;;;11.30;6.30;;;;;;;24.32;47.90;94912.25;10316378;28;20025;-72
2021/08/21 18:35:11;;;;;;;12.88;5.78;;;;;;;24.34;49.00;94917.38;10333649;28;20037;-72
2021/08/21 18:40:12;;;;;;;14.50;5.88;;;;;;;24.32;48.67;94916.94;10333549;28;20022;-72
2021/08/21 18:45:13;;;;;;;20.70;6.65;;;;;;;24.13;48.92;94920.44;10333048;28;20030;-72
2021/08/21 18:50:13;;;;;;;9.73;6.70;;;;;;;24.13;48.15;94923.19;10332720;28;20030;-72
2021/08/21 18:55:14;;;;;;;11.38;6.10;;;;;;;23.85;50.12;94921.28;10332979;28;20049;-72
2021/08/21 19:00:15;;;;;;;11.27;6.13;;;;;;;23.64;50.12;94929.75;10332239;28;20030;-72
2021/08/21 19:05:15;;;;;;;10.85;6.28;;;;;;;23.63;51.55;94933.66;10331799;28;20104;-72
2021/08/21 19:10:15;;;;;;;9.87;5.90;;;;;;;23.32;52.41;94936.00;10332260;28;20030;-72
2021/08/21 19:15:16;;;;;;;16.27;7.03;;;;;;;23.26;52.31;94940.16;10331638;28;20501;-72
2021/08/21 19:20:16;;;;;;;11.00;5.80;;;;;;;23.06;53.64;94941.09;10331891;28;20026;-72
2021/08/21 19:25:16;;;;;;;8.77;5.50;;;;;;;23.08;54.91;94939.63;10331390;28;20501;-72
2021/08/21 19:30:17;;;;;;;7.55;5.25;;;;;;;22.60;56.72;94944.84;10331508;28;20030;-72
2021/08/21 19:35:17;;;;;;;11.73;6.07;;;;;;;22.40;57.67;94948.56;10331234;28;20026;-72
2021/08/21 19:40:18;;;;;;;7.70;5.40;;;;;;;22.36;58.05;94957.44;10331215;28;20109;-72
2021/08/21 19:45:18;;;;;;;14.27;5.90;;;;;;;22.42;60.51;94958.00;10330798;28;20835;-71
2021/08/21 19:50:19;;;;;;;13.27;5.73;;;;;;;22.21;61.74;94963.56;10330365;28;20030;-71
2021/08/21 19:55:19;;;;;;;15.48;6.25;;;;;;;21.81;65.09;94969.69;10330535;28;20265;-71
2021/08/21 20:00:21;;;;;;;11.03;6.90;;;;;;;21.47;65.91;94977.88;10329632;28;20022;-71
2021/08/21 20:05:22;;;;;;;10.48;6.70;;;;;;;21.43;65.99;94978.91;10329645;28;20457;-71
2021/08/21 20:10:22;;;;;;;8.20;5.30;;;;;;;21.42;66.92;94985.50;10330135;28;20161;-72
2021/08/21 20:15:23;;;;;;;14.32;6.72;;;;;;;21.27;68.25;94976.81;10329635;28;20046;-73
2021/08/21 20:20:23;;;;;;;9.37;6.87;;;;;;;21.27;68.78;94976.03;10329637;28;20049;-73
2021/08/21 20:25:23;;;;;;;11.27;7.00;;;;;;;21.19;68.03;94983.16;10329083;28;20286;-73
2021/08/21 20:30:24;;;;;;;8.57;5.80;;;;;;;21.21;67.69;94975.44;10329133;28;20037;-72
2021/08/21 20:35:24;;;;;;;9.83;5.57;;;;;;;21.34;66.44;94982.53;10310460;28;20026;-70
2021/08/21 20:40:25;;;;;;;8.25;5.90;;;;;;;21.50;67.49;94977.25;10327144;28;20026;-71
2021/08/21 20:45:25;;;;;;;13.00;5.55;;;;;;;21.53;66.03;94983.19;10327505;28;20030;-73
2021/08/21 20:50:26;;;;;;;8.37;4.67;;;;;;;21.59;64.81;94982.66;10326937;28;20037;-71
2021/08/21 20:55:26;;;;;;;8.02;5.00;;;;;;;21.57;65.80;94984.91;10326284;28;20277;-71
2021/08/21 21:00:27;;;;;;;9.48;4.75;;;;;;;21.47;64.68;94988.84;10325828;28;20027;-71
2021/08/21 21:05:27;;;;;;;8.33;5.00;;;;;;;21.51;68.41;94994.44;10326055;28;20050;-71
2021/08/21 21:10:27;;;;;;;9.60;5.23;;;;;;;21.36;70.36;94990.38;10308408;28;20030;-71
2021/08/21 21:15:28;;;;;;;7.13;5.30;;;;;;;21.00;74.97;94991.81;10325980;28;20046;-71
2021/08/21 21:20:28;;;;;;;9.40;5.05;;;;;;;20.82;72.95;95004.81;10326287;28;20463;-71
2021/08/21 21:25:29;;;;;;;10.13;5.23;;;;;;;20.77;76.54;94999.56;10326005;28;20042;-71
2021/08/21 21:30:29;;;;;;;7.72;4.55;;;;;;;20.66;74.68;95002.63;10324778;28;20034;-71
2021/08/21 21:35:30;;;;;;;9.97;6.03;;;;;;;20.67;73.75;95003.44;10325407;28;20670;-71
2021/08/21 21:40:30;;;;;;;13.77;5.40;;;;;;;20.67;73.96;95003.44;10325448;28;20029;-71
2021/08/21 21:45:31;;;;;;;7.65;5.20;;;;;;;20.52;75.18;95010.25;10324867;28;20022;-72
2021/08/21 21:50:31;;;;;;;7.93;5.33;;;;;;;20.51;75.62;95011.38;10325483;28;20026;-71
2021/08/21 21:55:32;;;;;;;12.07;6.13;;;;;;;20.45;78.97;95002.59;10325604;28;20049;-72
2021/08/21 22:00:37;;;;;;;12.30;6.47;;;;;;;20.29;79.99;95005.09;10325706;28;20276;-72
2021/08/21 22:05:46;;;;;;;9.15;5.50;;;;;;;20.31;79.41;95007.50;10324862;28;20757;-72
2021/08/21 22:10:46;;;;;;;9.43;5.38;;;;;;;20.39;79.45;95006.66;10325454;28;20092;-72
2021/08/21 22:15:46;;;;;;;8.87;5.23;;;;;;;20.40;82.18;95007.44;10325584;28;20022;-72
2021/08/21 22:20:47;;;;;;;10.15;5.47;;;;;;;20.28;81.78;94997.22;10325024;28;20032;-72
2021/08/21 22:25:49;;;;;;;10.80;5.00;;;;;;;20.20;80.82;95000.81;10332225;28;20105;-72
2021/08/21 22:30:49;;;;;;;8.82;5.55;;;;;;;20.10;81.79;95001.97;10332702;28;20027;-72
2021/08/21 22:35:50;;;;;;;12.60;5.50;;;;;;;19.95;83.63;94995.94;10332205;28;20026;-72
2021/08/21 22:40:50;;;;;;;9.63;5.45;;;;;;;19.90;84.14;94995.28;10332148;28;20692;-71
2021/08/21 22:45:50;;;;;;;13.40;5.90;;;;;;;19.89;83.44;94997.22;10331649;28;20026;-72
2021/08/21 22:50:51;;;;;;;8.02;4.85;;;;;;;19.84;85.63;94991.94;10331744;28;20109;-72
2021/08/21 22:55:51;;;;;;;10.03;5.53;;;;;;;19.89;86.78;95001.88;10331595;28;20569;-72
2021/08/21 23:00:52;;;;;;;8.20;4.80;;;;;;;19.90;87.46;94993.38;10331694;28;20026;-72
2021/08/21 23:05:52;;;;;;;7.85;5.30;;;;;;;19.69;89.09;94995.16;10330952;28;20305;-72
2021/08/21 23:10:52;;;;;;;7.80;5.30;;;;;;;19.64;89.42;94996.94;10331026;28;20026;-72
2021/08/21 23:15:53;;;;;;;11.73;6.13;;;;;;;19.43;90.06;95001.47;10330668;28;20038;-72